createdAt,value
2017-12-02T00:01:25.768Z,73.30
2017-12-02T00:03:54.079Z,75.40
2017-12-02T00:06:22.351Z,81.80
2017-12-02T00:08:50.650Z,76.97
2017-12-02T00:11:18.157Z,79.57
2017-12-02T00:13:45.658Z,77.70
2017-12-02T00:16:13.178Z,80.37
2017-12-02T00:18:40.683Z,82.10
2017-12-02T00:21:08.257Z,69.93
2017-12-02T00:23:35.730Z,85.30
2017-12-02T00:26:03.253Z,78.70
2017-12-02T00:28:30.751Z,72.30
2017-12-02T00:30:58.272Z,73.43
2017-12-02T00:33:25.778Z,66.03
2017-12-02T00:35:53.327Z,81.27
2017-12-02T00:38:20.839Z,71.10
2017-12-02T00:40:48.347Z,75.07
2017-12-02T00:43:15.868Z,72.83
2017-12-02T00:45:43.371Z,73.17
2017-12-02T00:48:10.895Z,71.90
2017-12-02T00:50:38.400Z,71.47
2017-12-02T00:53:06.723Z,75.77
2017-12-02T00:55:34.227Z,77.30
2017-12-02T00:58:01.739Z,67.07
2017-12-02T01:00:29.259Z,63.73
2017-12-02T01:02:57.526Z,70.53
2017-12-02T01:05:25.815Z,65.33
2017-12-02T01:07:54.086Z,60.67
2017-12-02T01:10:22.394Z,63.20
2017-12-02T01:12:49.899Z,64.77
2017-12-02T01:15:17.420Z,61.60
2017-12-02T01:17:44.952Z,48.50
2017-12-02T01:20:12.466Z,58.17
2017-12-02T01:22:39.995Z,63.53
2017-12-02T01:25:07.507Z,52.10
2017-12-02T01:27:35.794Z,66.60
2017-12-02T01:30:04.063Z,58.77
2017-12-02T01:32:32.345Z,56.93
2017-12-02T01:35:00.615Z,67.00
2017-12-02T01:37:28.894Z,60.83
2017-12-02T01:39:57.162Z,56.83
2017-12-02T01:42:25.450Z,66.07
2017-12-02T01:44:53.739Z,60.70
2017-12-02T01:47:21.242Z,58.47
2017-12-02T01:49:48.758Z,50.03
2017-12-02T01:52:16.266Z,59.23
2017-12-02T01:54:43.794Z,55.97
2017-12-02T01:57:11.289Z,57.53
2017-12-02T01:59:38.816Z,57.60
2017-12-02T02:02:06.327Z,63.73
2017-12-02T02:04:34.615Z,62.57
2017-12-02T02:07:02.884Z,53.10
2017-12-02T02:09:31.167Z,54.43
2017-12-02T02:11:59.426Z,59.33
2017-12-02T02:14:27.706Z,56.87
2017-12-02T02:16:55.970Z,64.37
2017-12-02T02:19:23.486Z,64.17
2017-12-02T02:21:50.991Z,59.67
2017-12-02T02:24:19.287Z,58.90
2017-12-02T02:26:46.790Z,57.40
2017-12-02T02:29:14.291Z,48.73
2017-12-02T02:31:42.580Z,52.33
2017-12-02T02:34:10.078Z,53.57
2017-12-02T02:36:37.596Z,49.83
2017-12-02T02:39:05.116Z,52.73
2017-12-02T02:41:32.671Z,49.77
2017-12-02T02:44:00.190Z,53.87
2017-12-02T02:46:27.850Z,56.63
2017-12-02T02:48:55.378Z,51.50
2017-12-02T02:51:23.642Z,53.60
2017-12-02T02:53:51.164Z,51.07
2017-12-02T02:56:18.671Z,57.70
2017-12-02T02:58:46.955Z,53.33
2017-12-02T03:01:15.218Z,52.60
2017-12-02T03:03:43.536Z,51.30
2017-12-02T03:06:11.045Z,62.33
2017-12-02T03:08:38.546Z,59.07
2017-12-02T03:11:06.067Z,51.57
2017-12-02T03:13:34.339Z,46.50
2017-12-02T03:16:02.627Z,46.77
2017-12-02T03:18:30.892Z,53.60
2017-12-02T03:20:59.199Z,52.57
2017-12-02T03:23:26.707Z,57.07
2017-12-02T03:25:54.207Z,50.43
2017-12-02T03:28:21.723Z,50.90
2017-12-02T03:30:49.230Z,45.20
2017-12-02T03:33:16.751Z,50.33
2017-12-02T03:35:44.255Z,52.93
2017-12-02T03:38:11.803Z,53.00
2017-12-02T03:40:39.308Z,58.50
2017-12-02T03:43:06.810Z,62.43
2017-12-02T03:45:35.096Z,53.93
2017-12-02T03:48:02.598Z,56.67
2017-12-02T03:50:30.118Z,57.40
2017-12-02T03:52:57.621Z,54.23
2017-12-02T03:55:25.163Z,55.83
2017-12-02T03:57:52.666Z,54.87
2017-12-02T04:00:20.936Z,52.50
2017-12-02T04:02:49.226Z,58.57
2017-12-02T04:05:17.490Z,58.37
2017-12-02T04:07:45.782Z,53.60
2017-12-02T04:10:13.282Z,53.20
2017-12-02T04:12:40.838Z,42.97
2017-12-02T04:15:08.373Z,55.57
2017-12-02T04:17:35.912Z,50.27
2017-12-02T04:20:04.824Z,52.40
2017-12-02T04:22:32.355Z,53.10
2017-12-02T04:25:00.628Z,57.40
2017-12-02T04:27:28.899Z,45.87
2017-12-02T04:29:57.182Z,43.97
2017-12-02T04:32:25.447Z,41.60
2017-12-02T04:34:53.731Z,41.87
2017-12-02T04:37:22.000Z,51.00
2017-12-02T04:39:50.291Z,44.53
2017-12-02T04:42:18.558Z,46.40
2017-12-02T04:44:46.845Z,50.63
2017-12-02T04:47:15.111Z,46.50
2017-12-02T04:49:43.386Z,56.87
2017-12-02T04:52:11.672Z,58.30
2017-12-02T04:54:39.946Z,55.93
2017-12-02T04:57:08.234Z,53.23
2017-12-02T04:59:35.738Z,56.30
2017-12-02T05:02:04.030Z,53.87
2017-12-02T05:04:31.532Z,60.33
2017-12-02T05:06:59.039Z,55.20
2017-12-02T05:09:26.550Z,56.50
2017-12-02T05:11:54.058Z,61.60
2017-12-02T05:14:21.588Z,56.40
2017-12-02T05:16:49.097Z,57.87
2017-12-02T05:19:17.400Z,58.07
2017-12-02T05:21:44.905Z,49.40
2017-12-02T05:24:12.406Z,55.67
2017-12-02T05:26:39.922Z,55.27
2017-12-02T05:29:07.418Z,55.80
2017-12-02T05:31:35.711Z,60.67
2017-12-02T05:34:03.214Z,49.50
2017-12-02T05:36:30.742Z,45.20
2017-12-02T05:38:58.243Z,56.70
2017-12-02T05:41:26.104Z,60.83
2017-12-02T05:43:53.591Z,58.30
2017-12-02T05:46:21.876Z,53.10
2017-12-02T05:48:49.394Z,65.40
2017-12-02T05:51:16.905Z,53.00
2017-12-02T05:53:44.430Z,56.57
2017-12-02T05:56:12.706Z,61.80
2017-12-02T05:58:40.974Z,56.40
2017-12-02T06:01:09.269Z,57.37
2017-12-02T06:03:36.770Z,64.93
2017-12-02T06:06:04.305Z,52.13
2017-12-02T06:08:31.807Z,59.03
2017-12-02T06:10:59.330Z,56.27
2017-12-02T06:13:26.889Z,58.10
2017-12-02T06:15:55.114Z,68.90
2017-12-02T06:18:22.632Z,63.70
2017-12-02T06:20:50.139Z,60.67
2017-12-02T06:23:18.429Z,67.00
2017-12-02T06:25:45.937Z,54.90
2017-12-02T06:28:13.458Z,60.80
2017-12-02T06:30:40.963Z,61.50
2017-12-02T06:33:08.486Z,62.43
2017-12-02T06:35:35.992Z,61.87
2017-12-02T06:38:03.486Z,59.33
2017-12-02T06:40:31.002Z,59.70
2017-12-02T06:42:58.508Z,67.07
2017-12-02T06:45:26.026Z,63.40
2017-12-02T06:47:53.532Z,64.47
2017-12-02T06:50:21.075Z,65.17
2017-12-02T06:52:48.578Z,66.53
2017-12-02T06:55:16.074Z,62.80
2017-12-02T06:57:43.603Z,73.27
2017-12-02T07:00:11.115Z,69.13
2017-12-02T07:02:38.634Z,61.60
2017-12-02T07:05:06.139Z,63.20
2017-12-02T07:07:33.670Z,53.93
2017-12-02T07:10:01.942Z,72.57
2017-12-02T07:12:30.215Z,60.47
2017-12-02T07:14:58.502Z,68.50
2017-12-02T07:17:26.258Z,60.33
2017-12-02T07:19:54.586Z,62.60
2017-12-02T07:22:22.107Z,62.30
2017-12-02T07:24:49.646Z,62.43
2017-12-02T07:27:17.919Z,63.73
2017-12-02T07:29:46.202Z,62.30
2017-12-02T07:32:14.548Z,59.47
2017-12-02T07:34:42.071Z,61.97
2017-12-02T07:37:09.580Z,61.83
2017-12-02T07:39:37.115Z,52.27
2017-12-02T07:42:04.629Z,60.53
2017-12-02T07:44:32.187Z,59.53
2017-12-02T07:47:00.444Z,64.83
2017-12-02T07:49:28.738Z,58.57
2017-12-02T07:51:56.238Z,65.13
2017-12-02T07:54:23.748Z,66.70
2017-12-02T07:56:51.275Z,62.50
2017-12-02T07:59:18.783Z,66.63
2017-12-02T08:01:46.303Z,63.40
2017-12-02T08:04:14.574Z,64.57
2017-12-02T08:06:42.099Z,58.40
2017-12-02T08:09:09.606Z,64.10
2017-12-02T08:11:37.891Z,57.93
2017-12-02T08:14:05.402Z,62.70
2017-12-02T08:16:32.927Z,56.60
2017-12-02T08:19:00.460Z,67.73
2017-12-02T08:21:28.733Z,63.60
2017-12-02T08:23:57.014Z,65.10
2017-12-02T08:26:25.287Z,64.07
2017-12-02T08:28:53.569Z,57.93
2017-12-02T08:31:21.074Z,64.30
2017-12-02T08:33:48.583Z,57.30
2017-12-02T08:36:16.111Z,59.17
2017-12-02T08:38:43.620Z,67.37
2017-12-02T08:41:11.147Z,59.17
2017-12-02T08:43:39.420Z,63.60
2017-12-02T08:46:07.720Z,62.30
2017-12-02T08:48:35.244Z,62.30
2017-12-02T08:51:02.808Z,68.83
2017-12-02T08:53:31.103Z,58.37
2017-12-02T08:55:59.370Z,54.73
2017-12-02T08:58:27.670Z,59.47
2017-12-02T09:00:55.178Z,66.07
2017-12-02T09:03:22.714Z,60.53
2017-12-02T09:05:50.214Z,64.17
2017-12-02T09:08:18.506Z,62.93
2017-12-02T09:10:46.779Z,63.80
2017-12-02T09:13:14.322Z,59.67
2017-12-02T09:15:42.595Z,52.97
2017-12-02T09:18:10.107Z,60.00
2017-12-02T09:20:37.622Z,65.20
2017-12-02T09:23:05.890Z,62.80
2017-12-02T09:25:34.183Z,65.23
2017-12-02T09:28:02.459Z,63.33
2017-12-02T09:30:30.747Z,62.30
2017-12-02T09:32:58.249Z,64.03
2017-12-02T09:35:25.783Z,67.73
2017-12-02T09:37:53.287Z,66.33
2017-12-02T09:40:21.570Z,72.03
2017-12-02T09:42:49.862Z,67.17
2017-12-02T09:45:17.370Z,58.27
2017-12-02T09:47:44.890Z,57.30
2017-12-02T09:50:12.399Z,61.33
2017-12-02T09:52:39.926Z,62.20
2017-12-02T09:55:07.896Z,60.33
2017-12-02T09:57:36.218Z,60.10
2017-12-02T10:00:03.730Z,54.73
2017-12-02T10:02:31.235Z,61.77
2017-12-02T10:04:58.754Z,58.83
2017-12-02T10:07:26.262Z,56.03
2017-12-02T10:09:54.545Z,53.10
2017-12-02T10:12:22.810Z,56.10
2017-12-02T10:14:51.101Z,58.47
2017-12-02T10:17:19.460Z,55.07
2017-12-02T10:19:47.825Z,58.70
2017-12-02T10:22:15.331Z,61.43
2017-12-02T10:24:42.840Z,50.30
2017-12-02T10:27:10.358Z,48.83
2017-12-02T10:29:37.866Z,52.17
2017-12-02T10:32:06.155Z,50.73
2017-12-02T10:34:34.426Z,51.80
2017-12-02T10:37:02.716Z,46.90
2017-12-02T10:39:30.991Z,39.27
2017-12-02T10:41:58.527Z,45.70
2017-12-02T10:44:26.039Z,49.67
2017-12-02T10:46:53.558Z,51.13
2017-12-02T10:49:21.826Z,43.40
2017-12-02T10:51:49.381Z,50.47
2017-12-02T10:54:16.888Z,45.10
2017-12-02T10:56:44.390Z,44.27
2017-12-02T10:59:11.914Z,41.50
2017-12-02T11:01:39.419Z,49.90
2017-12-02T11:04:07.699Z,47.17
2017-12-02T11:06:35.961Z,45.23
2017-12-02T11:09:03.479Z,44.50
2017-12-02T11:11:30.978Z,46.40
2017-12-02T11:13:58.490Z,44.50
2017-12-02T11:16:25.987Z,43.27
2017-12-02T11:18:53.506Z,48.87
2017-12-02T11:21:21.009Z,40.80
2017-12-02T11:23:48.511Z,44.30
2017-12-02T12:02:34.130Z,33.10
2017-12-02T12:05:01.630Z,30.33
2017-12-02T12:07:29.167Z,25.10
2017-12-02T12:09:56.673Z,35.67
2017-12-02T12:12:24.186Z,34.63
2017-12-02T12:14:51.711Z,34.27
2017-12-02T12:17:19.983Z,29.40
2017-12-02T12:19:48.271Z,29.80
2017-12-02T12:22:15.783Z,32.90
2017-12-02T12:24:43.303Z,30.97
2017-12-02T12:27:10.808Z,30.60
2017-12-02T12:29:38.338Z,32.77
2017-12-02T12:32:05.842Z,32.20
2017-12-02T12:34:34.134Z,35.63
2017-12-02T12:37:02.401Z,38.03
2017-12-02T12:39:30.695Z,40.00
2017-12-02T12:41:58.199Z,28.13
2017-12-02T12:44:25.702Z,23.60
2017-12-02T12:46:53.987Z,26.60
2017-12-02T12:49:21.495Z,30.20
2017-12-02T12:51:49.036Z,35.00
2017-12-02T12:54:16.546Z,26.27
2017-12-02T12:56:44.836Z,30.40
2017-12-02T12:59:12.338Z,38.73
2017-12-02T13:01:39.871Z,26.80
2017-12-02T13:04:07.379Z,27.43
2017-12-02T13:06:34.900Z,24.20
2017-12-02T13:09:03.174Z,32.37
2017-12-02T13:11:30.706Z,27.50
2017-12-02T13:13:58.212Z,25.83
2017-12-02T13:16:25.710Z,20.20
2017-12-02T13:18:53.999Z,19.60
2017-12-02T13:21:21.506Z,25.70
2017-12-02T13:23:49.026Z,24.40
2017-12-02T13:26:16.534Z,27.03
2017-12-02T13:28:44.055Z,21.67
2017-12-02T13:31:11.562Z,27.20
2017-12-02T13:33:39.863Z,28.17
2017-12-02T13:36:07.366Z,25.77
2017-12-02T13:38:34.871Z,25.83
2017-12-02T13:41:03.158Z,30.03
2017-12-02T13:43:30.665Z,30.27
2017-12-02T13:45:58.188Z,33.63
2017-12-02T13:48:25.695Z,28.70
2017-12-02T13:50:53.214Z,37.13
2017-12-02T13:53:20.723Z,33.50
2017-12-02T13:55:49.035Z,30.73
2017-12-02T13:58:16.534Z,36.60
2017-12-02T14:00:44.044Z,32.50
2017-12-02T14:03:11.566Z,31.10
2017-12-02T14:05:39.070Z,39.33
2017-12-02T14:08:06.594Z,31.40
2017-12-02T14:10:34.873Z,34.07
2017-12-02T14:13:03.159Z,39.60
2017-12-02T14:15:30.664Z,30.80
2017-12-02T14:17:58.190Z,35.40
2017-12-02T14:20:25.710Z,32.93
2017-12-02T14:22:54.006Z,36.43
2017-12-02T14:25:22.278Z,34.70
2017-12-02T14:27:50.562Z,34.00
2017-12-02T14:30:18.076Z,30.33
2017-12-02T14:32:45.596Z,36.57
2017-12-02T14:35:13.138Z,33.87
2017-12-02T14:37:40.666Z,36.23
2017-12-02T14:40:08.186Z,32.93
2017-12-02T14:42:35.702Z,31.60
2017-12-02T14:45:03.986Z,37.23
2017-12-02T14:47:31.491Z,34.90
2017-12-02T14:49:59.018Z,28.23
2017-12-02T14:52:26.523Z,32.80
2017-12-02T14:54:54.047Z,32.00
2017-12-02T14:57:21.609Z,31.00
2017-12-02T14:59:49.851Z,33.17
2017-12-02T15:02:18.114Z,32.73
2017-12-02T15:04:46.403Z,33.63
2017-12-02T15:07:13.919Z,33.73
2017-12-02T15:09:41.460Z,38.70
2017-12-02T15:12:08.966Z,38.00
2017-12-02T15:14:37.243Z,39.23
2017-12-02T15:17:05.536Z,38.93
2017-12-02T15:19:33.052Z,40.03
2017-12-02T15:22:00.575Z,46.83
2017-12-02T15:24:28.078Z,37.83
2017-12-02T15:26:55.602Z,35.07
2017-12-02T15:29:23.103Z,31.47
2017-12-02T15:31:51.390Z,35.80
2017-12-02T15:34:19.664Z,33.80
2017-12-02T15:36:47.964Z,34.20
2017-12-02T15:39:15.470Z,35.33
2017-12-02T15:41:42.980Z,32.33
2017-12-02T15:44:10.502Z,37.73
2017-12-02T15:46:38.770Z,34.13
2017-12-02T15:49:06.298Z,32.90
2017-12-02T15:51:33.803Z,36.43
2017-12-02T15:54:02.099Z,32.27
2017-12-02T15:56:29.603Z,33.63
2017-12-02T15:58:57.124Z,37.17
2017-12-02T16:01:24.631Z,35.80
2017-12-02T16:03:52.165Z,35.83
2017-12-02T16:06:19.667Z,38.10
2017-12-02T16:08:47.938Z,37.37
2017-12-02T16:11:16.227Z,36.30
2017-12-02T16:13:43.743Z,40.37
2017-12-02T16:16:11.270Z,35.90
2017-12-02T16:18:38.775Z,31.70
2017-12-02T16:21:06.296Z,36.80
2017-12-02T16:23:33.790Z,30.63
2017-12-02T16:26:01.311Z,30.60
2017-12-02T16:28:28.810Z,31.87
2017-12-02T16:30:56.354Z,30.30
2017-12-02T16:33:23.859Z,28.03
2017-12-02T16:35:51.362Z,32.70
2017-12-02T16:38:19.162Z,36.77
2017-12-02T16:40:47.430Z,30.97
2017-12-02T16:43:14.951Z,29.70
2017-12-02T16:45:42.454Z,36.40
2017-12-02T16:48:10.738Z,34.33
2017-12-02T16:50:39.007Z,31.97
2017-12-02T16:53:07.294Z,32.77
2017-12-02T16:55:35.566Z,42.17
2017-12-02T16:58:03.871Z,28.70
2017-12-02T17:00:31.366Z,41.07
2017-12-02T17:02:58.866Z,34.43
2017-12-02T17:05:26.387Z,35.20
2017-12-02T17:07:53.899Z,30.37
2017-12-02T17:10:21.415Z,35.03
2017-12-02T17:12:48.918Z,30.77
2017-12-02T17:15:16.443Z,38.70
2017-12-02T17:17:44.711Z,27.70
2017-12-02T17:20:12.999Z,34.57
2017-12-02T17:22:41.265Z,34.50
2017-12-02T17:25:08.787Z,32.40
2017-12-02T17:27:36.287Z,35.90
2017-12-02T17:30:04.579Z,36.87
2017-12-02T17:32:32.087Z,33.67
2017-12-02T17:35:00.357Z,31.77
2017-12-02T17:37:27.878Z,33.23
2017-12-02T17:39:55.384Z,30.13
2017-12-02T17:42:22.903Z,29.60
2017-12-02T17:44:50.407Z,36.70
2017-12-02T17:47:17.926Z,34.50
2017-12-02T17:49:45.431Z,34.00
2017-12-02T17:52:12.950Z,33.77
2017-12-02T17:54:40.456Z,28.63
2017-12-02T17:57:08.747Z,36.90
2017-12-02T17:59:36.255Z,34.67
2017-12-02T18:02:03.762Z,37.93
2017-12-02T18:04:32.047Z,36.30
2017-12-02T18:06:59.557Z,35.80
2017-12-02T18:09:27.082Z,38.80
2017-12-02T18:11:54.578Z,39.80
2017-12-02T18:14:22.103Z,43.17
2017-12-02T18:16:49.606Z,38.90
2017-12-02T18:19:17.127Z,35.83
2017-12-02T18:21:44.630Z,43.23
2017-12-02T18:24:13.295Z,42.33
2017-12-02T18:26:40.799Z,40.77
2017-12-02T18:29:08.310Z,41.00
2017-12-02T18:31:35.837Z,40.27
2017-12-02T18:34:03.343Z,53.70
2017-12-02T18:36:30.856Z,47.60
2017-12-02T18:38:58.358Z,41.07
2017-12-02T18:41:25.890Z,40.73
2017-12-02T18:43:53.394Z,40.03
2017-12-02T18:46:21.689Z,39.30
2017-12-02T18:48:49.190Z,38.30
2017-12-02T18:51:16.710Z,38.67
2017-12-02T18:53:44.210Z,42.17
2017-12-02T18:56:11.726Z,38.33
2017-12-02T18:58:39.235Z,37.17
2017-12-02T19:01:06.755Z,42.10
2017-12-02T19:03:34.259Z,45.40
2017-12-02T19:06:02.537Z,38.73
2017-12-02T19:08:30.798Z,41.60
2017-12-02T19:10:58.303Z,43.00
2017-12-02T19:13:25.833Z,40.27
2017-12-02T19:15:54.112Z,36.40
2017-12-02T19:18:22.398Z,40.03
2017-12-02T19:20:49.898Z,36.53
2017-12-02T19:23:17.460Z,38.43
2017-12-02T19:25:44.938Z,41.23
2017-12-02T19:28:12.458Z,41.00
2017-12-02T19:30:39.975Z,35.13
2017-12-02T19:33:08.245Z,39.73
2017-12-02T19:35:36.539Z,42.60
2017-12-02T19:38:04.806Z,31.17
2017-12-02T19:40:33.090Z,34.23
2017-12-02T19:43:01.358Z,42.43
2017-12-02T19:45:29.643Z,46.50
2017-12-02T19:47:57.151Z,44.87
2017-12-02T19:50:25.439Z,38.80
2017-12-02T19:52:52.938Z,37.70
2017-12-02T19:55:20.464Z,41.07
2017-12-02T19:57:47.970Z,35.33
2017-12-02T20:00:15.514Z,38.67
2017-12-02T20:02:43.014Z,46.20
2017-12-02T20:05:10.531Z,40.87
2017-12-02T20:07:38.135Z,37.53
2017-12-02T20:10:06.408Z,39.33
2017-12-02T20:12:33.927Z,41.20
2017-12-02T20:15:01.430Z,43.07
2017-12-02T20:17:28.954Z,41.73
2017-12-02T20:19:56.458Z,37.90
2017-12-02T20:22:23.983Z,37.47
2017-12-02T20:24:51.491Z,39.93
2017-12-02T20:27:19.780Z,36.80
2017-12-02T20:29:48.047Z,38.83
2017-12-02T20:32:16.354Z,37.83
2017-12-02T20:34:43.854Z,33.90
2017-12-02T20:37:11.359Z,36.13
2017-12-02T20:39:38.883Z,31.20
2017-12-02T20:42:06.384Z,31.30
2017-12-02T20:44:33.903Z,32.97
2017-12-02T20:47:01.406Z,34.70
2017-12-02T20:49:28.964Z,30.60
2017-12-02T20:51:56.471Z,28.13
2017-12-02T20:54:23.992Z,32.60
2017-12-02T20:56:51.491Z,32.83
2017-12-02T20:59:19.006Z,32.83
2017-12-02T21:01:46.514Z,37.53
2017-12-02T21:04:14.803Z,33.30
2017-12-02T21:06:43.072Z,40.43
2017-12-02T21:09:11.358Z,38.17
2017-12-02T21:11:39.626Z,34.03
2017-12-02T21:14:07.914Z,36.00
2017-12-02T21:16:35.414Z,37.07
2017-12-02T21:19:02.914Z,35.70
2017-12-02T21:21:31.194Z,33.70
2017-12-02T21:23:59.487Z,37.30
2017-12-02T21:26:27.002Z,39.83
2017-12-02T21:28:54.502Z,41.23
2017-12-02T21:31:22.022Z,45.23
2017-12-02T21:33:49.523Z,35.53
2017-12-02T21:36:17.058Z,39.77
2017-12-02T21:38:45.331Z,42.07
2017-12-02T21:41:13.602Z,35.47
2017-12-02T21:43:41.118Z,35.40
2017-12-02T21:46:08.629Z,42.07
2017-12-02T21:48:36.919Z,35.77
2017-12-02T21:51:04.422Z,36.07
2017-12-02T21:53:31.938Z,34.47
2017-12-02T21:55:59.460Z,29.63
2017-12-02T21:58:26.982Z,33.87
2017-12-02T22:00:54.486Z,26.27
2017-12-02T22:03:22.779Z,31.73
2017-12-02T22:05:51.051Z,33.40
2017-12-02T22:08:18.582Z,33.30
2017-12-02T22:10:46.094Z,31.70
2017-12-02T22:13:13.618Z,30.87
2017-12-02T22:15:41.902Z,28.03
2017-12-02T22:18:10.170Z,28.53
2017-12-02T22:20:38.454Z,28.60
2017-12-02T22:23:06.717Z,26.57
2017-12-02T22:25:35.007Z,25.87
2017-12-02T22:28:03.270Z,27.73
2017-12-02T22:30:31.559Z,26.40
2017-12-02T22:32:59.831Z,29.10
2017-12-02T22:35:28.110Z,23.03
2017-12-02T22:37:56.381Z,27.37
2017-12-02T22:40:24.668Z,22.90
2017-12-02T22:42:52.173Z,23.23
2017-12-02T22:45:19.699Z,25.87
2017-12-02T22:47:47.198Z,21.73
2017-12-02T22:50:14.704Z,27.40
2017-12-02T22:52:42.227Z,28.67
2017-12-02T22:55:09.739Z,22.73
2017-12-02T22:57:37.250Z,19.50
2017-12-02T23:00:04.755Z,24.83
2017-12-02T23:02:32.271Z,26.03
2017-12-02T23:05:00.580Z,21.87
2017-12-02T23:07:28.095Z,22.10
2017-12-02T23:09:55.598Z,22.60
2017-12-02T23:12:23.122Z,22.40
2017-12-02T23:14:51.391Z,20.37
2017-12-02T23:17:18.937Z,24.07
2017-12-02T23:19:46.438Z,19.70
2017-12-02T23:22:13.999Z,28.00
2017-12-02T23:24:41.524Z,26.53
2017-12-02T23:27:09.022Z,22.13
2017-12-02T23:29:36.544Z,21.30
2017-12-02T23:32:04.047Z,19.60
2017-12-02T23:34:31.566Z,20.40
2017-12-02T23:36:59.862Z,21.50
2017-12-02T23:39:27.380Z,18.57
2017-12-02T23:41:54.883Z,21.43
2017-12-02T23:44:22.407Z,21.03
2017-12-02T23:46:49.908Z,25.87
2017-12-02T23:49:17.427Z,21.10
2017-12-02T23:51:44.925Z,23.23
2017-12-02T23:54:12.459Z,22.47
2017-12-02T23:56:40.727Z,24.97
2017-12-02T23:59:09.003Z,20.10
